createdAt,value
2018-05-25T00:01:38.557Z,74903.16
2018-05-25T00:04:08.788Z,74943.63
2018-05-25T00:06:38.519Z,74950.72
2018-05-25T00:09:08.234Z,74950.72
2018-05-25T00:11:38.722Z,74958.81
2018-05-25T00:14:08.473Z,74971.97
2018-05-25T00:16:39.100Z,74988.16
2018-05-25T00:19:11.655Z,74971.97
2018-05-25T00:21:42.357Z,74998.28
2018-05-25T00:24:12.173Z,75012.45
2018-05-25T00:26:41.895Z,75028.64
2018-05-25T00:29:11.732Z,75008.40
2018-05-25T00:31:42.259Z,74979.05
2018-05-25T00:34:11.767Z,75015.48
2018-05-25T00:36:41.253Z,75023.58
2018-05-25T00:39:11.091Z,75031.68
2018-05-25T00:41:40.767Z,75035.73
2018-05-25T00:44:10.673Z,75032.69
2018-05-25T00:46:40.937Z,75041.80
2018-05-25T00:49:10.923Z,75020.55
2018-05-25T00:51:41.121Z,75044.84
2018-05-25T00:54:11.304Z,75034.72
2018-05-25T00:56:40.725Z,75031.68
2018-05-25T00:59:10.807Z,75023.58
2018-05-25T01:01:42.063Z,75022.57
2018-05-25T01:04:11.769Z,75033.70
2018-05-25T01:06:41.759Z,74980.06
2018-05-25T01:09:11.713Z,74966.91
2018-05-25T01:11:43.587Z,74953.75
2018-05-25T01:14:13.371Z,74945.66
2018-05-25T01:16:43.218Z,74942.63
2018-05-25T01:19:14.504Z,74963.88
2018-05-25T01:21:44.691Z,74992.20
2018-05-25T01:24:15.297Z,74984.11
2018-05-25T01:26:45.479Z,75015.48
2018-05-25T01:29:15.493Z,74984.11
2018-05-25T01:31:45.131Z,75000.30
2018-05-25T01:34:14.989Z,74982.09
2018-05-25T01:36:44.970Z,74971.97
2018-05-25T01:39:14.755Z,74965.89
2018-05-25T01:41:44.417Z,74943.63
2018-05-25T01:44:14.375Z,74944.64
2018-05-25T01:46:44.054Z,74969.94
2018-05-25T01:49:13.506Z,74940.59
2018-05-25T01:51:43.499Z,74949.70
2018-05-25T01:54:13.205Z,74997.27
2018-05-25T01:56:42.909Z,74995.25
2018-05-25T01:59:12.751Z,75010.42
2018-05-25T02:01:42.322Z,75004.35
2018-05-25T02:04:11.829Z,75021.56
2018-05-25T02:06:42.256Z,74979.05
2018-05-25T02:09:11.774Z,74971.97
2018-05-25T02:11:41.355Z,75004.35
2018-05-25T02:14:13.734Z,75022.57
2018-05-25T02:16:45.455Z,75028.64
2018-05-25T02:19:15.647Z,74988.16
2018-05-25T02:21:45.019Z,75009.41
2018-05-25T02:24:14.641Z,75032.69
2018-05-25T02:26:44.364Z,75014.47
2018-05-25T02:29:14.041Z,75017.51
2018-05-25T02:31:43.693Z,75028.64
2018-05-25T02:34:13.671Z,75001.31
2018-05-25T02:36:43.370Z,75000.30
2018-05-25T02:39:12.878Z,74989.17
2018-05-25T02:41:42.790Z,74997.27
2018-05-25T02:44:12.382Z,74997.27
2018-05-25T02:46:41.751Z,74971.97
2018-05-25T02:49:12.457Z,74943.63
2018-05-25T02:51:42.181Z,74916.30
2018-05-25T02:54:11.917Z,74888.98
2018-05-25T02:56:41.843Z,74881.90
2018-05-25T02:59:11.641Z,74875.83
2018-05-25T03:01:41.610Z,74893.03
2018-05-25T03:04:10.938Z,74914.28
2018-05-25T03:06:42.072Z,74921.36
2018-05-25T03:09:11.719Z,74952.73
2018-05-25T03:11:41.515Z,74951.73
2018-05-25T03:14:13.055Z,74926.42
2018-05-25T03:16:42.549Z,74959.82
2018-05-25T03:19:12.240Z,74948.69
2018-05-25T03:21:41.826Z,74944.64
2018-05-25T03:24:11.586Z,74927.44
2018-05-25T03:26:41.205Z,74915.30
2018-05-25T03:29:11.151Z,74878.86
2018-05-25T03:31:40.939Z,74874.81
2018-05-25T03:34:10.674Z,74871.78
2018-05-25T03:36:40.130Z,74889.99
2018-05-25T03:39:09.794Z,74889.99
2018-05-25T03:41:39.301Z,74897.08
2018-05-25T03:44:09.563Z,74901.13
2018-05-25T03:46:39.263Z,74864.70
2018-05-25T03:49:08.670Z,74846.48
2018-05-25T03:51:38.969Z,74837.38
2018-05-25T03:54:08.927Z,74846.48
2018-05-25T03:56:39.065Z,74857.61
2018-05-25T04:00:21.482Z,74888.98
2018-05-25T04:02:51.533Z,74916.30
2018-05-25T04:05:21.830Z,74924.41
2018-05-25T04:07:51.346Z,74936.55
2018-05-25T04:10:21.053Z,74921.36
2018-05-25T04:12:51.377Z,74862.67
2018-05-25T04:15:21.022Z,74871.78
2018-05-25T04:17:50.798Z,74912.26
2018-05-25T04:20:24.581Z,74938.57
2018-05-25T04:22:53.993Z,74953.75
2018-05-25T04:25:23.623Z,74959.82
2018-05-25T04:28:04.426Z,74980.06
2018-05-25T04:30:34.392Z,74969.94
2018-05-25T04:33:05.822Z,74964.88
2018-05-25T04:35:36.724Z,74941.61
2018-05-25T04:38:06.358Z,74931.48
2018-05-25T04:40:35.788Z,74928.45
2018-05-25T04:43:06.874Z,74925.41
2018-05-25T04:45:36.308Z,74896.06
2018-05-25T04:48:06.433Z,74843.44
2018-05-25T04:50:35.905Z,74833.32
2018-05-25T04:53:05.531Z,74843.44
2018-05-25T04:55:36.163Z,74824.21
2018-05-25T04:58:08.299Z,74816.12
2018-05-25T05:00:37.925Z,74777.66
2018-05-25T05:03:07.475Z,74809.03
2018-05-25T05:05:37.229Z,74811.06
2018-05-25T05:08:09.558Z,74812.07
2018-05-25T05:10:39.444Z,74772.60
2018-05-25T05:13:13.367Z,74741.23
2018-05-25T05:15:47.951Z,74743.25
2018-05-25T05:18:18.157Z,74760.46
2018-05-25T05:20:49.577Z,74755.40
2018-05-25T05:23:22.563Z,74723.02
2018-05-25T05:25:59.010Z,74702.78
2018-05-25T05:28:32.115Z,74779.69
2018-05-25T05:31:06.400Z,74733.14
2018-05-25T05:33:53.381Z,74775.64
2018-05-25T05:36:29.536Z,74837.38
2018-05-25T05:39:01.988Z,74831.30
2018-05-25T05:41:31.889Z,74854.58
2018-05-25T05:44:01.499Z,74840.41
2018-05-25T05:46:31.259Z,74829.27
2018-05-25T05:49:00.894Z,74760.46
2018-05-25T05:51:30.295Z,74756.41
2018-05-25T05:54:00.288Z,74815.11
2018-05-25T05:56:29.722Z,74759.45
2018-05-25T05:58:59.225Z,74711.89
2018-05-25T06:01:28.898Z,74638.02
2018-05-25T06:03:58.371Z,74650.16
2018-05-25T06:06:28.554Z,74720.99
2018-05-25T06:08:58.346Z,74747.30
2018-05-25T06:11:27.777Z,74727.06
2018-05-25T06:13:57.490Z,74727.06
2018-05-25T06:16:26.866Z,74790.81
2018-05-25T06:18:56.207Z,74719.98
2018-05-25T06:21:25.874Z,74659.27
2018-05-25T06:23:55.217Z,74769.56
2018-05-25T06:26:24.573Z,74674.44
2018-05-25T06:28:53.949Z,74660.27
2018-05-25T06:31:23.571Z,74657.23
2018-05-25T06:33:53.174Z,74603.61
2018-05-25T06:36:22.846Z,74662.30
2018-05-25T06:38:52.397Z,74590.45
2018-05-25T06:41:22.082Z,74590.45
2018-05-25T06:43:51.609Z,74604.63
2018-05-25T06:46:21.366Z,74608.66
2018-05-25T06:48:50.987Z,74661.29
2018-05-25T06:51:20.618Z,74659.27
2018-05-25T06:53:50.327Z,74711.89
2018-05-25T06:56:20.356Z,74675.45
2018-05-25T06:58:49.729Z,74657.23
2018-05-25T07:01:19.494Z,74623.84
2018-05-25T07:03:48.871Z,74588.42
2018-05-25T07:06:18.651Z,74666.34
2018-05-25T07:08:48.189Z,74695.69
2018-05-25T07:11:18.076Z,74652.18
2018-05-25T07:13:47.815Z,74670.39
2018-05-25T07:16:17.874Z,74669.38
2018-05-25T07:18:47.206Z,74540.87
2018-05-25T07:21:16.758Z,74529.73
2018-05-25T07:23:46.405Z,74439.68
2018-05-25T07:26:16.053Z,74431.58
2018-05-25T07:28:45.854Z,74491.28
2018-05-25T07:31:15.488Z,74477.12
2018-05-25T07:33:45.207Z,74375.93
2018-05-25T07:36:15.207Z,74344.56
2018-05-25T07:38:44.600Z,74311.17
2018-05-25T07:41:14.409Z,74258.56
2018-05-25T07:43:44.637Z,74291.95
2018-05-25T07:46:14.337Z,74284.87
2018-05-25T07:48:43.899Z,74277.78
2018-05-25T07:51:13.959Z,74238.32
2018-05-25T07:53:43.793Z,74197.84
2018-05-25T07:56:13.662Z,74260.58
2018-05-25T07:58:44.137Z,74233.27
2018-05-25T08:01:14.571Z,74359.73
2018-05-25T08:03:44.452Z,74413.38
2018-05-25T08:06:14.331Z,74547.95
2018-05-25T08:08:43.734Z,74480.16
2018-05-25T08:11:13.404Z,74456.88
2018-05-25T08:13:43.243Z,74457.89
2018-05-25T08:16:12.781Z,74360.75
2018-05-25T08:18:42.161Z,74274.75
2018-05-25T08:21:12.050Z,74229.22
2018-05-25T08:23:42.045Z,74223.14
2018-05-25T08:26:11.600Z,74392.13
2018-05-25T08:28:43.168Z,74224.16
2018-05-25T08:31:18.800Z,74141.19
2018-05-25T08:33:48.594Z,74108.81
2018-05-25T08:36:18.709Z,74121.97
2018-05-25T08:38:48.364Z,74118.92
2018-05-25T08:41:18.603Z,74224.16
2018-05-25T08:43:48.505Z,74099.70
2018-05-25T08:46:18.334Z,74242.37
2018-05-25T08:48:48.404Z,74238.32
2018-05-25T08:51:18.043Z,74185.70
2018-05-25T08:53:47.702Z,74170.53
2018-05-25T08:56:17.231Z,74107.80
2018-05-25T08:58:46.918Z,74186.72
2018-05-25T09:01:16.365Z,74179.64
2018-05-25T09:03:45.869Z,74259.57
2018-05-25T09:06:15.687Z,74132.08
2018-05-25T09:08:45.619Z,74200.88
2018-05-25T09:11:15.377Z,74103.75
2018-05-25T09:13:45.072Z,74301.05
2018-05-25T09:16:14.642Z,74318.25
2018-05-25T09:18:44.377Z,74215.05
2018-05-25T09:21:14.194Z,74167.49
2018-05-25T09:23:43.830Z,74141.19
2018-05-25T09:26:13.582Z,74220.11
2018-05-25T09:28:43.252Z,74260.58
2018-05-25T09:31:13.406Z,74215.05
2018-05-25T09:33:43.297Z,74130.06
2018-05-25T09:36:12.972Z,74218.09
2018-05-25T09:38:42.933Z,74143.21
2018-05-25T09:41:12.680Z,74103.75
2018-05-25T09:43:42.065Z,74111.84
2018-05-25T09:46:11.802Z,74081.49
2018-05-25T09:48:41.202Z,74094.64
2018-05-25T09:51:10.577Z,74083.52
2018-05-25T09:53:40.520Z,74127.02
2018-05-25T09:56:10.162Z,74218.09
2018-05-25T09:58:40.102Z,74170.53
2018-05-25T10:01:09.725Z,74327.36
2018-05-25T10:03:39.117Z,74178.63
2018-05-25T10:06:09.038Z,74281.83
2018-05-25T10:08:39.206Z,74239.33
2018-05-25T10:11:09.010Z,74376.94
2018-05-25T10:13:38.419Z,74370.88
2018-05-25T10:16:09.048Z,74369.86
2018-05-25T10:18:38.569Z,74235.28
2018-05-25T10:21:08.648Z,74230.23
2018-05-25T10:23:38.474Z,74368.84
2018-05-25T10:26:07.822Z,74277.78
2018-05-25T10:28:37.168Z,74293.97
2018-05-25T10:31:06.790Z,74291.95
2018-05-25T10:33:36.179Z,74290.94
2018-05-25T10:36:05.636Z,74286.89
2018-05-25T10:38:34.986Z,74281.83
2018-05-25T10:41:04.826Z,74118.92
2018-05-25T10:43:35.369Z,74193.80
2018-05-25T10:46:06.191Z,74254.51
2018-05-25T10:48:35.712Z,74270.70
2018-05-25T10:51:05.794Z,74264.63
2018-05-25T10:53:35.319Z,74228.20
2018-05-25T10:56:04.842Z,74283.86
2018-05-25T10:58:34.519Z,74276.77
2018-05-25T11:01:04.299Z,74199.88
2018-05-25T11:03:33.861Z,74118.92
2018-05-25T11:06:03.707Z,74147.26
2018-05-25T11:08:33.080Z,74108.81
2018-05-25T11:11:02.616Z,74131.07
2018-05-25T11:13:32.328Z,74027.87
2018-05-25T11:16:01.731Z,74083.52
2018-05-25T11:18:31.117Z,73929.73
2018-05-25T11:21:00.863Z,73853.85
2018-05-25T11:23:30.472Z,74051.14
2018-05-25T11:26:00.645Z,74029.89
2018-05-25T11:28:30.318Z,74022.81
2018-05-25T11:30:59.795Z,74018.77
2018-05-25T11:33:29.238Z,74028.88
2018-05-25T11:35:59.131Z,74020.78
2018-05-25T11:38:33.105Z,74079.47
2018-05-25T11:41:03.662Z,74114.88
2018-05-25T11:43:33.504Z,74144.22
2018-05-25T11:46:03.071Z,74142.20
2018-05-25T11:48:34.020Z,74160.41
2018-05-25T11:51:03.477Z,74111.84
2018-05-25T11:53:33.572Z,74073.40
2018-05-25T11:56:05.522Z,74029.89
2018-05-25T11:58:35.518Z,74008.64
2018-05-25T12:02:10.123Z,73992.45
2018-05-25T12:04:40.279Z,73991.45
2018-05-25T12:07:10.432Z,74030.91
2018-05-25T12:09:40.764Z,74023.83
2018-05-25T12:12:10.838Z,74049.11
2018-05-25T12:14:40.633Z,74162.44
2018-05-25T12:17:10.962Z,74218.09
2018-05-25T12:19:42.066Z,74186.72
2018-05-25T12:22:18.028Z,74252.48
2018-05-25T12:24:48.883Z,74251.47
2018-05-25T12:27:22.094Z,74237.31
2018-05-25T12:29:54.335Z,74220.11
2018-05-25T12:32:24.625Z,74345.58
2018-05-25T12:34:54.054Z,74366.83
2018-05-25T12:37:23.789Z,74405.27
2018-05-25T12:39:54.197Z,74411.34
2018-05-25T12:42:23.887Z,74451.82
2018-05-25T12:45:14.914Z,74433.61
2018-05-25T12:47:44.638Z,74411.34
2018-05-25T12:50:14.860Z,74428.55
2018-05-25T12:52:45.482Z,74413.38
2018-05-25T12:55:15.820Z,74375.93
2018-05-25T12:57:47.250Z,74349.63
2018-05-25T13:00:17.309Z,74369.86
2018-05-25T13:02:47.123Z,74330.39
2018-05-25T13:05:17.284Z,74325.34
2018-05-25T13:07:48.134Z,74244.39
2018-05-25T13:10:18.121Z,74275.76
2018-05-25T13:12:47.525Z,74196.84
2018-05-25T13:15:16.992Z,74165.47
2018-05-25T13:17:47.902Z,74242.37
2018-05-25T13:20:25.051Z,74244.39
2018-05-25T13:22:55.361Z,74184.70
2018-05-25T13:25:25.335Z,74196.84
2018-05-25T13:27:54.918Z,74178.63
2018-05-25T13:30:24.599Z,74227.19
2018-05-25T13:32:54.391Z,74088.58
2018-05-25T13:35:25.560Z,74076.44
2018-05-25T13:37:55.773Z,74119.94
2018-05-25T13:40:26.133Z,74014.72
2018-05-25T13:42:55.906Z,73882.18
2018-05-25T13:45:26.976Z,73940.86
2018-05-25T13:47:59.099Z,74066.31
2018-05-25T13:50:29.022Z,73909.50
2018-05-25T13:53:02.224Z,73780.00
2018-05-25T13:55:34.072Z,73832.61
2018-05-25T13:58:04.235Z,73846.77
2018-05-25T14:00:35.096Z,73832.61
2018-05-25T14:03:07.692Z,73749.64
2018-05-25T14:05:41.329Z,73743.58
2018-05-25T14:08:19.085Z,73703.11
2018-05-25T14:10:55.151Z,73684.91
2018-05-25T14:13:26.590Z,73770.89
2018-05-25T14:15:59.104Z,73695.02
2018-05-25T14:18:33.667Z,73660.63
2018-05-25T14:21:10.015Z,73723.34
2018-05-25T14:23:42.070Z,73716.27
2018-05-25T14:26:18.737Z,73710.19
2018-05-25T14:28:50.251Z,73708.17
2018-05-25T14:31:20.501Z,73714.23
2018-05-25T14:33:52.011Z,73750.66
2018-05-25T14:36:22.716Z,73724.36
2018-05-25T14:38:53.013Z,73688.95
2018-05-25T14:41:22.787Z,73648.48
2018-05-25T14:46:32.473Z,73630.27
2018-05-25T14:49:04.725Z,73681.86
2018-05-25T14:51:35.419Z,73654.55
2018-05-25T14:54:05.142Z,73722.33
2018-05-25T14:56:37.353Z,73743.58
2018-05-25T14:59:10.512Z,73727.39
2018-05-25T15:01:41.932Z,73727.39
2018-05-25T15:04:12.093Z,73871.05
2018-05-25T15:06:42.201Z,73864.98
2018-05-25T15:09:12.564Z,73870.04
2018-05-25T15:11:45.775Z,73965.14
2018-05-25T15:14:18.843Z,73966.16
2018-05-25T15:16:51.702Z,74035.97
2018-05-25T15:19:23.202Z,73991.45
2018-05-25T15:21:53.976Z,73885.22
2018-05-25T15:24:31.229Z,73868.02
2018-05-25T15:27:13.260Z,73845.76
2018-05-25T15:29:42.989Z,73851.83
2018-05-25T15:32:18.201Z,73838.67
2018-05-25T15:34:59.843Z,73848.80
2018-05-25T15:37:31.246Z,73839.69
2018-05-25T15:40:01.718Z,73845.76
2018-05-25T15:42:33.276Z,73819.45
2018-05-25T15:45:04.177Z,73852.84
2018-05-25T15:47:34.203Z,73865.99
2018-05-25T15:50:04.025Z,73827.55
2018-05-25T15:52:34.060Z,73811.36
2018-05-25T15:55:08.410Z,73798.20
2018-05-25T15:57:39.871Z,73781.02
2018-05-25T16:00:14.477Z,73776.96
2018-05-25T16:02:50.476Z,73758.75
2018-05-25T16:05:20.994Z,73776.96
2018-05-25T16:07:50.870Z,73726.38
2018-05-25T16:10:22.242Z,73799.22
2018-05-25T16:12:56.355Z,73799.22
2018-05-25T16:15:26.908Z,73719.30
2018-05-25T16:17:57.040Z,73707.16
2018-05-25T16:20:27.128Z,73698.05
2018-05-25T16:22:57.599Z,73715.25
2018-05-25T16:25:29.778Z,73702.09
2018-05-25T16:27:59.528Z,73692.99
2018-05-25T16:30:29.615Z,73697.04
2018-05-25T16:32:59.455Z,73646.45
2018-05-25T16:35:31.365Z,73644.44
2018-05-25T16:38:02.305Z,73644.44
2018-05-25T16:40:31.970Z,73629.27
2018-05-25T16:43:02.672Z,73621.17
2018-05-25T16:45:32.868Z,73640.39
2018-05-25T16:48:03.318Z,73660.63
2018-05-25T16:50:35.299Z,73712.22
2018-05-25T16:53:06.050Z,73662.64
2018-05-25T16:55:44.132Z,73708.17
2018-05-25T16:58:16.182Z,73682.88
2018-05-25T17:00:47.092Z,73659.61
2018-05-25T17:03:22.163Z,73668.72
2018-05-25T17:05:53.488Z,73691.98
2018-05-25T17:08:25.217Z,73730.42
2018-05-25T17:10:59.795Z,73770.89
2018-05-25T17:13:32.248Z,73792.14
2018-05-25T17:16:04.454Z,73797.20
2018-05-25T17:18:37.339Z,73795.17
2018-05-25T17:21:08.658Z,73788.09
2018-05-25T17:23:40.351Z,73773.92
2018-05-25T17:26:12.331Z,73745.60
2018-05-25T17:28:46.553Z,73769.88
2018-05-25T17:31:18.025Z,73761.79
2018-05-25T17:33:48.229Z,73765.83
2018-05-25T17:36:22.929Z,73766.84
2018-05-25T17:38:54.564Z,73777.97
2018-05-25T17:41:24.718Z,73789.10
2018-05-25T17:43:55.760Z,73772.92
2018-05-25T17:46:25.922Z,73774.94
2018-05-25T17:48:58.271Z,73765.83
2018-05-25T17:51:29.726Z,73777.97
2018-05-25T17:54:02.519Z,73756.73
2018-05-25T17:56:36.438Z,73754.70
2018-05-25T17:59:09.518Z,73757.73
2018-05-25T18:01:43.905Z,73773.92
2018-05-25T18:04:18.241Z,73771.91
2018-05-25T18:06:49.369Z,73763.81
2018-05-25T18:09:20.001Z,73777.97
2018-05-25T18:11:50.049Z,73793.15
2018-05-25T18:14:20.269Z,73826.53
2018-05-25T18:16:50.743Z,73833.62
2018-05-25T18:19:22.207Z,73873.08
2018-05-25T18:21:53.005Z,73902.41
2018-05-25T18:24:26.719Z,73901.41
2018-05-25T18:26:59.716Z,73929.73
2018-05-25T18:29:33.756Z,73936.81
2018-05-25T18:32:06.862Z,73954.02
2018-05-25T18:34:43.960Z,74001.56
2018-05-25T18:37:18.883Z,73988.41
2018-05-25T18:39:53.050Z,73998.53
2018-05-25T18:42:25.421Z,73998.53
2018-05-25T18:44:56.571Z,74010.67
2018-05-25T18:47:29.917Z,74027.87
2018-05-25T18:50:13.374Z,74037.98
2018-05-25T18:52:54.049Z,74067.33
2018-05-25T18:55:25.938Z,74078.45
2018-05-25T18:58:00.071Z,74113.87
2018-05-25T19:00:34.240Z,74137.14
2018-05-25T19:03:24.733Z,74172.55
2018-05-25T19:06:20.316Z,74192.79
2018-05-25T19:08:52.755Z,74220.11
2018-05-25T19:11:27.183Z,74251.47
2018-05-25T19:14:10.621Z,74227.19
2018-05-25T19:16:43.462Z,74304.09
2018-05-25T19:19:22.159Z,74312.19
2018-05-25T19:21:53.762Z,74351.65
2018-05-25T19:24:27.560Z,74367.84
2018-05-25T19:27:01.196Z,74448.78
2018-05-25T19:29:33.541Z,74447.77
2018-05-25T19:32:18.520Z,74480.16
2018-05-25T19:34:53.075Z,74465.98
2018-05-25T19:37:27.385Z,74398.19
2018-05-25T19:40:00.513Z,74393.13
2018-05-25T19:42:32.582Z,74482.17
2018-05-25T19:45:07.378Z,74519.62
2018-05-25T19:47:45.769Z,74560.09
2018-05-25T19:50:17.815Z,74567.18
2018-05-25T19:52:59.083Z,74583.37
2018-05-25T19:55:39.404Z,74535.81
2018-05-25T19:58:16.610Z,74562.12
2018-05-25T20:00:53.059Z,74554.02
2018-05-25T20:03:30.124Z,74603.61
2018-05-25T20:06:03.969Z,74541.88
2018-05-25T20:08:36.736Z,74498.37
2018-05-25T20:11:12.441Z,74492.30
2018-05-25T20:13:42.845Z,74498.37
2018-05-25T20:16:14.920Z,74503.42
2018-05-25T20:18:45.361Z,74513.55
2018-05-25T20:21:17.844Z,74510.52
2018-05-25T20:23:52.576Z,74523.66
2018-05-25T20:26:23.888Z,74519.62
2018-05-25T20:28:54.457Z,74526.70
2018-05-25T20:31:25.601Z,74532.77
2018-05-25T20:34:01.753Z,74537.83
2018-05-25T20:36:31.763Z,74540.87
2018-05-25T20:39:04.760Z,74567.18
2018-05-25T20:41:38.245Z,74618.78
2018-05-25T20:44:08.360Z,74601.58
2018-05-25T20:46:42.188Z,74592.47
2018-05-25T20:49:12.851Z,74590.45
2018-05-25T20:51:43.051Z,74595.52
2018-05-25T20:54:17.565Z,74594.50
2018-05-25T20:56:47.193Z,74578.31
2018-05-25T20:59:18.882Z,74548.97
2018-05-25T21:01:50.008Z,74568.19
2018-05-25T21:04:20.280Z,74604.63
2018-05-25T21:06:51.014Z,74624.86
2018-05-25T21:09:21.703Z,74634.98
2018-05-25T21:11:51.901Z,74626.88
2018-05-25T21:14:23.203Z,74639.02
2018-05-25T21:16:53.167Z,74651.16
2018-05-25T21:19:22.877Z,74650.16
2018-05-25T21:21:54.219Z,74652.18
2018-05-25T21:24:25.257Z,74634.98
2018-05-25T21:26:55.435Z,74658.25
2018-05-25T21:29:25.642Z,74663.31
2018-05-25T21:31:55.928Z,74666.34
2018-05-25T21:34:26.924Z,74665.34
2018-05-25T21:36:56.506Z,74669.38
2018-05-25T21:39:25.960Z,74670.39
2018-05-25T21:41:56.937Z,74681.53
2018-05-25T21:44:29.455Z,74686.59
2018-05-25T21:46:59.800Z,74688.61
2018-05-25T21:49:32.506Z,74694.68
2018-05-25T21:52:03.116Z,74696.70
2018-05-25T21:54:34.128Z,74703.79
2018-05-25T21:57:09.934Z,74727.06
2018-05-25T21:59:39.650Z,74718.97
2018-05-25T22:02:13.776Z,74710.88
2018-05-25T22:04:44.661Z,74707.84
2018-05-25T22:07:14.508Z,74710.88
2018-05-25T22:09:44.369Z,74711.89
2018-05-25T22:12:16.064Z,74739.20
2018-05-25T22:14:45.602Z,74763.50
2018-05-25T22:17:15.565Z,74762.48
2018-05-25T22:19:49.496Z,74797.91
2018-05-25T22:22:20.590Z,74810.05
2018-05-25T22:24:51.636Z,74803.97
2018-05-25T22:27:25.252Z,74838.38
2018-05-25T22:30:00.129Z,74915.30
2018-05-25T22:32:29.949Z,74948.69
2018-05-25T22:35:00.640Z,74962.86
2018-05-25T22:37:30.563Z,74943.63
2018-05-25T22:40:03.186Z,74952.73
2018-05-25T22:42:43.708Z,74923.39
2018-05-25T22:45:24.283Z,74888.98
2018-05-25T22:48:05.305Z,74872.79
2018-05-25T22:50:46.176Z,74865.70
2018-05-25T22:53:18.023Z,74861.66
2018-05-25T22:55:48.888Z,74830.28
2018-05-25T22:58:19.079Z,74831.30
2018-05-25T23:00:48.618Z,74847.48
2018-05-25T23:03:18.736Z,74849.52
2018-05-25T23:05:48.177Z,74860.64
2018-05-25T23:08:18.052Z,74832.31
2018-05-25T23:10:47.820Z,74832.31
2018-05-25T23:13:18.464Z,74863.68
2018-05-25T23:15:48.037Z,74864.70
2018-05-25T23:18:18.302Z,74861.66
2018-05-25T23:20:47.849Z,74840.41
2018-05-25T23:23:17.916Z,74865.70
2018-05-25T23:25:51.824Z,74855.59
2018-05-25T23:28:22.493Z,74858.63
2018-05-25T23:30:52.947Z,74857.61
2018-05-25T23:33:22.604Z,74872.79
2018-05-25T23:35:52.684Z,74886.95
2018-05-25T23:38:22.767Z,74866.72
2018-05-25T23:40:52.852Z,74874.81
2018-05-25T23:43:22.427Z,74906.19
2018-05-25T23:45:52.172Z,74881.90
2018-05-25T23:48:28.886Z,74911.25
2018-05-25T23:53:58.139Z,74903.16
2018-05-25T23:56:28.775Z,74914.28
2018-05-25T23:59:00.953Z,74922.38
